createdAt,value
2022-08-26T00:00:38.129Z,0.00
2022-08-26T00:01:38.114Z,0.00
2022-08-26T00:02:38.214Z,0.00
2022-08-26T00:03:38.144Z,0.00
2022-08-26T00:04:38.084Z,0.00
2022-08-26T00:05:38.072Z,0.00
2022-08-26T00:06:38.062Z,0.00
2022-08-26T00:07:38.052Z,0.00
2022-08-26T00:08:38.046Z,0.00
2022-08-26T00:09:40.187Z,0.00
2022-08-26T00:10:38.016Z,0.00
2022-08-26T00:11:38.005Z,0.00
2022-08-26T00:12:37.996Z,0.00
2022-08-26T00:13:37.983Z,0.00
2022-08-26T00:14:37.976Z,0.00
2022-08-26T00:15:37.964Z,0.00
2022-08-26T00:16:38.037Z,0.00
2022-08-26T00:17:40.320Z,0.00
2022-08-26T00:18:38.721Z,0.00
2022-08-26T00:19:37.977Z,0.00
2022-08-26T00:20:38.023Z,0.00
2022-08-26T00:21:38.046Z,0.00
2022-08-26T00:22:38.045Z,0.00
2022-08-26T00:23:37.883Z,0.00
2022-08-26T00:24:37.865Z,0.00
2022-08-26T00:25:37.854Z,0.00
2022-08-26T00:26:37.841Z,0.00
2022-08-26T00:27:37.831Z,0.00
2022-08-26T00:28:37.819Z,0.00
2022-08-26T00:29:37.833Z,0.00
2022-08-26T00:30:37.818Z,0.00
2022-08-26T00:31:37.858Z,0.00
2022-08-26T00:32:37.780Z,0.00
2022-08-26T00:33:37.767Z,0.00
2022-08-26T00:34:37.755Z,0.00
2022-08-26T00:35:37.850Z,0.00
2022-08-26T00:36:37.734Z,0.00
2022-08-26T00:37:37.724Z,0.00
2022-08-26T00:38:37.999Z,0.00
2022-08-26T00:39:37.703Z,0.00
2022-08-26T00:40:37.695Z,0.00
2022-08-26T00:41:37.681Z,0.00
2022-08-26T00:42:37.666Z,0.00
2022-08-26T00:43:47.719Z,0.00
2022-08-26T00:44:38.672Z,0.00
2022-08-26T00:45:37.688Z,0.00
2022-08-26T00:46:37.623Z,0.00
2022-08-26T00:47:37.615Z,0.00
2022-08-26T00:48:37.604Z,0.00
2022-08-26T00:49:37.610Z,0.00
2022-08-26T00:50:37.581Z,0.00
2022-08-26T00:51:37.572Z,0.00
2022-08-26T00:52:37.568Z,0.00
2022-08-26T00:53:37.550Z,0.00
2022-08-26T00:54:37.538Z,0.00
2022-08-26T00:55:38.143Z,0.00
2022-08-26T00:56:37.517Z,0.00
2022-08-26T00:57:37.505Z,0.00
2022-08-26T00:58:37.496Z,0.00
2022-08-26T00:59:38.938Z,0.00
2022-08-26T01:00:37.549Z,0.00
2022-08-26T01:01:37.476Z,0.00
2022-08-26T01:02:37.508Z,0.00
2022-08-26T01:03:37.442Z,0.00
2022-08-26T01:04:37.427Z,0.00
2022-08-26T01:05:37.419Z,0.00
2022-08-26T01:06:37.410Z,0.00
2022-08-26T01:07:37.397Z,0.00
2022-08-26T01:08:37.392Z,0.00
2022-08-26T01:09:37.375Z,0.00
2022-08-26T01:10:37.362Z,0.00
2022-08-26T01:11:37.353Z,0.00
2022-08-26T01:12:37.341Z,0.00
2022-08-26T01:13:37.331Z,0.00
2022-08-26T01:14:37.321Z,0.00
2022-08-26T01:15:37.313Z,0.00
2022-08-26T01:16:37.380Z,0.00
2022-08-26T01:17:37.289Z,0.00
2022-08-26T01:18:37.277Z,0.00
2022-08-26T01:19:37.267Z,0.00
2022-08-26T01:20:37.256Z,0.00
2022-08-26T01:21:40.773Z,0.00
2022-08-26T01:22:37.234Z,0.00
2022-08-26T01:23:37.228Z,0.00
2022-08-26T01:24:37.212Z,0.00
2022-08-26T01:25:37.203Z,0.00
2022-08-26T01:26:37.189Z,0.00
2022-08-26T01:27:37.178Z,0.00
2022-08-26T01:28:37.166Z,0.00
2022-08-26T01:29:37.159Z,0.00
2022-08-26T01:30:37.207Z,0.00
2022-08-26T01:31:37.238Z,0.00
2022-08-26T01:32:38.944Z,0.00
2022-08-26T01:33:42.045Z,0.00
2022-08-26T01:34:37.104Z,0.00
2022-08-26T01:35:37.093Z,0.00
2022-08-26T01:36:37.083Z,0.00
2022-08-26T01:37:37.073Z,0.00
2022-08-26T01:38:37.061Z,0.00
2022-08-26T01:39:37.049Z,0.00
2022-08-26T01:40:37.037Z,0.00
2022-08-26T01:41:37.030Z,0.00
2022-08-26T01:42:37.015Z,0.00
2022-08-26T01:43:37.009Z,0.00
2022-08-26T01:44:36.994Z,0.00
2022-08-26T01:45:37.030Z,0.00
2022-08-26T01:46:36.974Z,0.00
2022-08-26T01:47:36.965Z,0.00
2022-08-26T01:48:36.952Z,0.00
2022-08-26T01:49:36.942Z,0.00
2022-08-26T01:50:36.931Z,0.00
2022-08-26T01:51:36.919Z,0.00
2022-08-26T01:52:36.908Z,0.00
2022-08-26T01:53:36.897Z,0.00
2022-08-26T01:54:36.884Z,0.00
2022-08-26T01:55:36.878Z,0.00
2022-08-26T01:56:36.863Z,0.00
2022-08-26T01:57:36.854Z,0.00
2022-08-26T01:58:36.842Z,0.00
2022-08-26T01:59:36.831Z,0.00
2022-08-26T02:00:36.938Z,0.00
2022-08-26T02:01:36.810Z,0.00
2022-08-26T02:02:36.798Z,0.00
2022-08-26T02:03:38.792Z,0.00
2022-08-26T02:04:36.826Z,0.00
2022-08-26T02:05:36.768Z,0.00
2022-08-26T02:06:36.756Z,0.00
2022-08-26T02:07:36.745Z,0.00
2022-08-26T02:08:36.731Z,0.00
2022-08-26T02:09:41.235Z,0.00
2022-08-26T02:10:36.710Z,0.00
2022-08-26T02:11:36.911Z,0.00
2022-08-26T02:12:36.690Z,0.00
2022-08-26T02:13:36.680Z,0.00
2022-08-26T02:14:36.666Z,0.00
2022-08-26T02:15:36.659Z,0.00
2022-08-26T02:16:36.697Z,0.00
2022-08-26T02:17:36.640Z,0.00
2022-08-26T02:18:36.623Z,0.00
2022-08-26T02:19:36.614Z,0.00
2022-08-26T02:20:36.602Z,0.00
2022-08-26T02:21:36.594Z,0.00
2022-08-26T02:22:36.582Z,0.00
2022-08-26T02:23:36.571Z,0.00
2022-08-26T02:24:36.558Z,0.00
2022-08-26T02:25:36.550Z,0.00
2022-08-26T02:26:36.539Z,0.00
2022-08-26T02:27:36.531Z,0.00
2022-08-26T02:28:36.514Z,0.00
2022-08-26T02:29:36.507Z,0.00
2022-08-26T02:30:36.492Z,0.00
2022-08-26T02:31:36.606Z,0.00
2022-08-26T02:32:36.471Z,0.00
2022-08-26T02:33:36.461Z,0.00
2022-08-26T02:34:36.449Z,0.00
2022-08-26T02:35:36.439Z,0.00
2022-08-26T02:36:36.431Z,0.00
2022-08-26T02:37:36.418Z,0.00
2022-08-26T02:38:36.420Z,0.00
2022-08-26T02:39:36.400Z,0.00
2022-08-26T02:40:36.489Z,0.00
2022-08-26T02:41:40.284Z,0.00
2022-08-26T02:42:37.393Z,0.00
2022-08-26T02:43:36.357Z,0.00
2022-08-26T02:44:36.593Z,0.00
2022-08-26T02:45:36.332Z,0.00
2022-08-26T02:46:36.370Z,0.00
2022-08-26T02:47:36.312Z,0.00
2022-08-26T02:48:36.297Z,0.00
2022-08-26T02:49:36.294Z,0.00
2022-08-26T02:50:36.276Z,0.00
2022-08-26T02:51:36.268Z,0.00
2022-08-26T02:52:36.256Z,0.00
2022-08-26T02:53:36.250Z,0.00
2022-08-26T02:54:36.235Z,0.00
2022-08-26T02:55:36.490Z,0.00
2022-08-26T02:56:36.213Z,0.00
2022-08-26T02:57:36.202Z,0.00
2022-08-26T02:58:36.192Z,0.00
2022-08-26T02:59:36.182Z,0.00
2022-08-26T03:00:36.225Z,0.00
2022-08-26T03:01:36.252Z,0.00
2022-08-26T03:02:36.146Z,0.00
2022-08-26T03:03:36.320Z,0.00
2022-08-26T03:04:36.126Z,0.00
2022-08-26T03:05:36.115Z,0.00
2022-08-26T03:06:36.105Z,0.00
2022-08-26T03:07:36.096Z,0.00
2022-08-26T03:08:36.084Z,0.00
2022-08-26T03:09:36.071Z,0.00
2022-08-26T03:10:36.060Z,0.00
2022-08-26T03:11:36.052Z,0.00
2022-08-26T03:12:36.045Z,0.00
2022-08-26T03:13:36.036Z,0.00
2022-08-26T03:14:36.019Z,0.00
2022-08-26T03:15:36.009Z,0.00
2022-08-26T03:16:36.071Z,0.00
2022-08-26T03:17:35.987Z,0.00
2022-08-26T03:18:35.978Z,0.00
2022-08-26T03:19:35.969Z,0.00
2022-08-26T03:20:35.955Z,0.00
2022-08-26T03:21:36.174Z,0.00
2022-08-26T03:22:35.929Z,0.00
2022-08-26T03:23:35.921Z,0.00
2022-08-26T03:24:35.911Z,0.00
2022-08-26T03:25:35.902Z,0.00
2022-08-26T03:26:35.888Z,0.00
2022-08-26T03:27:35.880Z,0.00
2022-08-26T03:28:35.864Z,0.00
2022-08-26T03:29:35.858Z,0.00
2022-08-26T03:30:35.850Z,0.00
2022-08-26T03:31:35.902Z,0.00
2022-08-26T03:32:35.826Z,0.00
2022-08-26T03:33:35.812Z,0.00
2022-08-26T03:34:35.797Z,0.00
2022-08-26T03:35:35.789Z,0.00
2022-08-26T03:36:35.782Z,0.00
2022-08-26T03:37:35.767Z,0.00
2022-08-26T03:38:35.753Z,0.00
2022-08-26T03:39:35.742Z,0.00
2022-08-26T03:40:35.732Z,0.00
2022-08-26T03:41:35.722Z,0.00
2022-08-26T03:42:35.707Z,0.00
2022-08-26T03:43:35.778Z,0.00
2022-08-26T03:44:35.686Z,4.00
2022-08-26T03:45:35.875Z,4.00
2022-08-26T03:46:35.737Z,0.00
2022-08-26T03:47:35.660Z,0.00
2022-08-26T03:48:35.643Z,4.00
2022-08-26T03:49:35.635Z,0.00
2022-08-26T03:50:35.782Z,4.00
2022-08-26T03:51:35.610Z,4.00
2022-08-26T03:52:35.592Z,8.00
2022-08-26T03:53:35.588Z,8.00
2022-08-26T03:54:35.573Z,8.00
2022-08-26T03:55:35.561Z,12.00
2022-08-26T03:56:35.552Z,12.00
2022-08-26T03:57:35.541Z,16.00
2022-08-26T03:58:35.528Z,16.00
2022-08-26T03:59:35.515Z,20.00
2022-08-26T04:00:35.510Z,24.00
2022-08-26T04:01:35.561Z,28.00
2022-08-26T04:02:35.519Z,32.00
2022-08-26T04:03:35.471Z,36.00
2022-08-26T04:04:35.457Z,40.00
2022-08-26T04:05:35.449Z,48.00
2022-08-26T04:06:35.437Z,52.00
2022-08-26T04:07:35.427Z,64.00
2022-08-26T04:08:35.413Z,68.00
2022-08-26T04:09:35.403Z,80.00
2022-08-26T04:10:35.392Z,92.00
2022-08-26T04:11:35.383Z,104.00
2022-08-26T04:12:35.373Z,116.00
2022-08-26T04:13:35.364Z,132.00
2022-08-26T04:14:35.351Z,148.00
2022-08-26T04:15:35.347Z,168.00
2022-08-26T04:16:35.429Z,184.00
2022-08-26T04:17:35.318Z,204.00
2022-08-26T04:18:37.125Z,228.00
2022-08-26T04:19:35.296Z,244.00
2022-08-26T04:20:35.283Z,272.00
2022-08-26T04:21:35.276Z,296.00
2022-08-26T04:22:35.262Z,320.00
2022-08-26T04:23:46.950Z,348.00
2022-08-26T04:24:35.244Z,376.00
2022-08-26T04:25:35.333Z,404.00
2022-08-26T04:26:35.222Z,432.00
2022-08-26T04:27:35.212Z,464.00
2022-08-26T04:28:35.201Z,496.00
2022-08-26T04:29:35.193Z,528.00
2022-08-26T04:30:35.182Z,560.00
2022-08-26T04:31:35.247Z,592.00
2022-08-26T04:32:35.158Z,624.00
2022-08-26T04:33:35.146Z,660.00
2022-08-26T04:34:36.162Z,692.00
2022-08-26T04:35:35.133Z,728.00
2022-08-26T04:36:35.132Z,764.00
2022-08-26T04:37:35.099Z,800.00
2022-08-26T04:38:35.088Z,844.00
2022-08-26T04:39:35.078Z,884.00
2022-08-26T04:40:35.149Z,924.00
2022-08-26T04:41:35.061Z,960.00
2022-08-26T04:42:35.045Z,1004.00
2022-08-26T04:43:35.031Z,1044.00
2022-08-26T04:44:35.023Z,1092.00
2022-08-26T04:45:35.007Z,1136.00
2022-08-26T04:46:35.037Z,1184.00
2022-08-26T04:47:34.986Z,1232.00
2022-08-26T04:48:34.980Z,1272.00
2022-08-26T04:49:35.377Z,1312.00
2022-08-26T04:50:34.955Z,1340.00
2022-08-26T04:51:34.942Z,1364.00
2022-08-26T04:52:34.933Z,1388.00
2022-08-26T04:53:34.928Z,1432.00
2022-08-26T04:54:34.910Z,1492.00
2022-08-26T04:55:38.547Z,1576.00
2022-08-26T04:56:34.889Z,1648.00
2022-08-26T04:57:34.881Z,1720.00
2022-08-26T04:58:34.867Z,1788.00
2022-08-26T04:59:38.942Z,1848.00
2022-08-26T05:00:34.846Z,1916.00
2022-08-26T05:01:34.892Z,2008.00
2022-08-26T05:02:34.822Z,2128.00
2022-08-26T05:03:34.808Z,2264.00
2022-08-26T05:04:34.804Z,2400.00
2022-08-26T05:05:34.784Z,2540.00
2022-08-26T05:06:36.999Z,2656.00
2022-08-26T05:07:34.763Z,2760.00
2022-08-26T05:08:34.755Z,2860.00
2022-08-26T05:09:34.747Z,2972.00
2022-08-26T05:10:34.744Z,3116.00
2022-08-26T05:11:34.758Z,3244.00
2022-08-26T05:12:34.711Z,3356.00
2022-08-26T05:13:34.694Z,3428.00
2022-08-26T05:14:34.688Z,3464.00
2022-08-26T05:15:34.728Z,3508.00
2022-08-26T05:16:34.669Z,3584.00
2022-08-26T05:17:34.650Z,3716.00
2022-08-26T05:18:34.645Z,3888.00
2022-08-26T05:19:34.629Z,4092.00
2022-08-26T05:20:34.621Z,4356.00
2022-08-26T05:21:34.605Z,4524.00
2022-08-26T05:22:34.622Z,4616.00
2022-08-26T05:23:34.628Z,4684.00
2022-08-26T05:24:34.573Z,4720.00
2022-08-26T05:25:34.562Z,4784.00
2022-08-26T05:26:34.549Z,4936.00
2022-08-26T05:27:34.540Z,5112.00
2022-08-26T05:28:34.531Z,5308.00
2022-08-26T05:29:34.519Z,5492.00
2022-08-26T05:30:34.508Z,5684.00
2022-08-26T05:31:34.550Z,5836.00
2022-08-26T05:32:34.487Z,5960.00
2022-08-26T05:33:34.475Z,6088.00
2022-08-26T05:34:34.528Z,6220.00
2022-08-26T05:35:34.473Z,6360.00
2022-08-26T05:36:34.951Z,6476.00
2022-08-26T05:37:34.434Z,6580.00
2022-08-26T05:38:34.424Z,6684.00
2022-08-26T05:39:34.424Z,6788.00
2022-08-26T05:40:34.491Z,6884.00
2022-08-26T05:41:36.855Z,7000.00
2022-08-26T05:42:34.378Z,7068.00
2022-08-26T05:43:34.366Z,7156.00
2022-08-26T05:44:53.521Z,7320.00
2022-08-26T05:45:35.375Z,7400.00
2022-08-26T05:46:34.606Z,7520.00
2022-08-26T05:47:34.327Z,7628.00
2022-08-26T05:48:34.312Z,7824.00
2022-08-26T05:49:34.300Z,8012.00
2022-08-26T05:50:34.291Z,8116.00
2022-08-26T05:51:34.276Z,8224.00
2022-08-26T05:52:34.267Z,8172.00
2022-08-26T05:53:34.262Z,8364.00
2022-08-26T05:54:34.245Z,8360.00
2022-08-26T05:55:34.235Z,8344.00
2022-08-26T05:56:34.223Z,8440.00
2022-08-26T05:57:37.515Z,8548.00
2022-08-26T05:58:34.232Z,8652.00
2022-08-26T05:59:34.188Z,8852.00
2022-08-26T06:00:34.182Z,8944.00
2022-08-26T06:01:35.819Z,8948.00
2022-08-26T06:02:34.225Z,9016.00
2022-08-26T06:03:34.155Z,9064.00
2022-08-26T06:04:34.140Z,9124.00
2022-08-26T06:05:38.290Z,9184.00
2022-08-26T06:06:34.402Z,9252.00
2022-08-26T06:07:34.104Z,9364.00
2022-08-26T06:08:34.106Z,9504.00
2022-08-26T06:09:34.092Z,9592.00
2022-08-26T06:10:34.161Z,9716.00
2022-08-26T06:11:34.063Z,9920.00
2022-08-26T06:12:34.054Z,9968.00
2022-08-26T06:13:34.041Z,10100.00
2022-08-26T06:14:34.033Z,10228.00
2022-08-26T06:15:34.072Z,10368.00
2022-08-26T06:16:34.010Z,10528.00
2022-08-26T06:17:33.994Z,10776.00
2022-08-26T06:18:33.988Z,11100.00
2022-08-26T06:19:34.321Z,11148.00
2022-08-26T06:20:34.027Z,10988.00
2022-08-26T06:21:33.954Z,11112.00
2022-08-26T06:22:33.943Z,11296.00
2022-08-26T06:23:33.931Z,11436.00
2022-08-26T06:24:33.924Z,12300.00
2022-08-26T06:25:33.910Z,12128.00
2022-08-26T06:26:33.901Z,11676.00
2022-08-26T06:27:33.888Z,11668.00
2022-08-26T06:28:33.877Z,11804.00
2022-08-26T06:29:33.869Z,11956.00
2022-08-26T06:30:33.876Z,12132.00
2022-08-26T06:31:33.886Z,12776.00
2022-08-26T06:32:33.833Z,13756.00
2022-08-26T06:33:33.825Z,16512.00
2022-08-26T06:34:33.841Z,17280.00
2022-08-26T06:35:33.808Z,15024.00
2022-08-26T06:36:33.799Z,13360.00
2022-08-26T06:37:33.778Z,14688.00
2022-08-26T06:38:33.771Z,15484.00
2022-08-26T06:39:33.760Z,14616.00
2022-08-26T06:40:33.830Z,15880.00
2022-08-26T06:41:33.755Z,14644.00
2022-08-26T06:42:33.748Z,14916.00
2022-08-26T06:43:33.720Z,14432.00
2022-08-26T06:44:33.705Z,15640.00
2022-08-26T06:45:33.689Z,13884.00
2022-08-26T06:46:33.783Z,13592.00
2022-08-26T06:47:33.672Z,14720.00
2022-08-26T06:48:33.663Z,17152.00
2022-08-26T06:49:33.748Z,19424.00
2022-08-26T06:50:33.641Z,21472.00
2022-08-26T06:51:34.241Z,20352.00
2022-08-26T06:52:33.667Z,19328.00
2022-08-26T06:53:33.626Z,22624.00
2022-08-26T06:54:33.597Z,21280.00
2022-08-26T06:55:33.586Z,21248.00
2022-08-26T06:56:33.583Z,21536.00
2022-08-26T06:57:33.564Z,22912.00
2022-08-26T06:58:33.556Z,24768.00
2022-08-26T06:59:33.545Z,24992.00
2022-08-26T07:00:33.535Z,25920.00
2022-08-26T07:01:33.569Z,27136.00
2022-08-26T07:02:33.686Z,28576.00
2022-08-26T07:03:34.996Z,29184.00
2022-08-26T07:04:34.516Z,29664.00
2022-08-26T07:05:33.481Z,29280.00
2022-08-26T07:06:33.468Z,29856.00
2022-08-26T07:07:33.457Z,30624.00
2022-08-26T07:08:33.447Z,31296.00
2022-08-26T07:09:33.435Z,31904.00
2022-08-26T07:10:33.428Z,32928.00
2022-08-26T07:11:33.419Z,34080.00
2022-08-26T07:12:33.405Z,34240.00
2022-08-26T07:13:33.469Z,34144.00
2022-08-26T07:14:33.388Z,34464.00
2022-08-26T07:15:33.435Z,34464.00
2022-08-26T07:16:33.368Z,35168.00
2022-08-26T07:17:33.383Z,35200.00
2022-08-26T07:18:33.609Z,35648.00
2022-08-26T07:19:33.448Z,36064.00
2022-08-26T07:20:33.492Z,36064.00
2022-08-26T07:21:33.450Z,36352.00
2022-08-26T07:22:33.493Z,36352.00
2022-08-26T07:23:33.489Z,36224.00
2022-08-26T07:24:33.534Z,36320.00
2022-08-26T07:25:33.270Z,36960.00
2022-08-26T07:26:33.262Z,37536.00
2022-08-26T07:27:33.248Z,38112.00
2022-08-26T07:28:33.626Z,38976.00
2022-08-26T07:29:33.250Z,39808.00
2022-08-26T07:30:33.220Z,40320.00
2022-08-26T07:31:39.595Z,39712.00
2022-08-26T07:32:34.219Z,39456.00
2022-08-26T07:33:33.190Z,39616.00
2022-08-26T07:34:33.460Z,39392.00
2022-08-26T07:35:33.162Z,39616.00
2022-08-26T07:36:33.157Z,39296.00
2022-08-26T07:37:35.607Z,39264.00
2022-08-26T07:38:33.840Z,39552.00
2022-08-26T07:39:33.127Z,40544.00
2022-08-26T07:40:33.144Z,40032.00
2022-08-26T07:41:33.106Z,38304.00
2022-08-26T07:42:33.090Z,33376.00
2022-08-26T07:43:33.077Z,35552.00
2022-08-26T07:44:33.073Z,35040.00
2022-08-26T07:45:33.091Z,35936.00
2022-08-26T07:46:33.105Z,36416.00
2022-08-26T07:47:33.039Z,37792.00
2022-08-26T07:48:33.028Z,39712.00
2022-08-26T07:49:33.367Z,41216.00
2022-08-26T07:50:48.932Z,41792.00
2022-08-26T07:51:34.261Z,42336.00
2022-08-26T07:52:32.987Z,42240.00
2022-08-26T07:53:32.980Z,42496.00
2022-08-26T07:54:32.986Z,42144.00
2022-08-26T07:55:32.962Z,41152.00
2022-08-26T07:56:33.102Z,42816.00
2022-08-26T07:57:32.935Z,40960.00
2022-08-26T07:58:32.926Z,41728.00
2022-08-26T07:59:32.914Z,40576.00
2022-08-26T08:00:32.904Z,42752.00
2022-08-26T08:01:32.892Z,43104.00
2022-08-26T08:02:32.884Z,42784.00
2022-08-26T08:03:32.870Z,40832.00
2022-08-26T08:04:32.862Z,40928.00
2022-08-26T08:05:33.744Z,41568.00
2022-08-26T08:06:32.878Z,39360.00
2022-08-26T08:07:44.782Z,39200.00
2022-08-26T08:08:33.847Z,40160.00
2022-08-26T08:09:32.811Z,35648.00
2022-08-26T08:10:32.816Z,37504.00
2022-08-26T08:11:32.789Z,41024.00
2022-08-26T08:12:32.784Z,43104.00
2022-08-26T08:13:32.770Z,44576.00
2022-08-26T08:14:32.769Z,45856.00
2022-08-26T08:15:32.750Z,47872.00
2022-08-26T08:16:33.308Z,49248.00
2022-08-26T08:17:32.761Z,49088.00
2022-08-26T08:18:32.729Z,51104.00
2022-08-26T08:19:36.677Z,50752.00
2022-08-26T08:20:32.701Z,51872.00
2022-08-26T08:21:32.693Z,51648.00
2022-08-26T08:22:32.686Z,50400.00
2022-08-26T08:23:32.674Z,49280.00
2022-08-26T08:24:32.668Z,50720.00
2022-08-26T08:25:32.652Z,52960.00
2022-08-26T08:26:32.643Z,52192.00
2022-08-26T08:27:32.678Z,53952.00
2022-08-26T08:28:32.620Z,55168.00
2022-08-26T08:29:32.608Z,54176.00
2022-08-26T08:30:32.709Z,54496.00
2022-08-26T08:31:56.260Z,53152.00
2022-08-26T08:32:33.613Z,53472.00
2022-08-26T08:33:32.567Z,52480.00
2022-08-26T08:34:32.639Z,51360.00
2022-08-26T08:35:32.553Z,52000.00
2022-08-26T08:36:36.169Z,51136.00
2022-08-26T08:37:32.535Z,42080.00
2022-08-26T08:38:32.554Z,50080.00
2022-08-26T08:39:32.519Z,48064.00
2022-08-26T08:40:32.583Z,48128.00
2022-08-26T08:41:32.485Z,43808.00
2022-08-26T08:42:32.476Z,45632.00
2022-08-26T08:43:32.469Z,48640.00
2022-08-26T08:44:32.477Z,45792.00
2022-08-26T08:45:35.901Z,50464.00
2022-08-26T08:46:32.555Z,51776.00
2022-08-26T08:47:32.431Z,56800.00
2022-08-26T08:48:32.433Z,58464.00
2022-08-26T08:49:32.445Z,55072.00
2022-08-26T08:50:32.410Z,54368.00
2022-08-26T08:51:32.397Z,49888.00
2022-08-26T08:52:32.375Z,52096.00
2022-08-26T08:53:32.372Z,54720.00
2022-08-26T08:54:32.358Z,55072.00
2022-08-26T08:55:32.356Z,54656.00
2022-08-26T08:56:32.336Z,54400.00
2022-08-26T08:57:32.328Z,58016.00
2022-08-26T08:58:32.317Z,58240.00
2022-08-26T08:59:32.317Z,59264.00
2022-08-26T09:00:33.199Z,60256.00
2022-08-26T09:01:34.623Z,57024.00
2022-08-26T09:02:32.404Z,55552.00
2022-08-26T09:03:32.270Z,51712.00
2022-08-26T09:04:32.261Z,46176.00
2022-08-26T09:05:34.307Z,50624.00
2022-08-26T09:06:32.244Z,48928.00
2022-08-26T09:07:34.524Z,50400.00
2022-08-26T09:08:32.226Z,50016.00
2022-08-26T09:09:32.212Z,45504.00
2022-08-26T09:10:32.216Z,48672.00
2022-08-26T09:11:32.224Z,46592.00
2022-08-26T09:12:32.184Z,46176.00
2022-08-26T09:13:32.174Z,49568.00
2022-08-26T09:14:32.196Z,51232.00
2022-08-26T09:15:32.154Z,56000.00
2022-08-26T09:16:32.208Z,61664.00
2022-08-26T09:17:32.134Z,60320.00
2022-08-26T09:18:32.131Z,59072.00
2022-08-26T09:19:32.113Z,58176.00
2022-08-26T09:20:32.104Z,57696.00
2022-08-26T09:21:32.106Z,56224.00
2022-08-26T09:22:32.083Z,56416.00
2022-08-26T09:23:32.087Z,55936.00
2022-08-26T09:24:32.065Z,50016.00
2022-08-26T09:25:32.054Z,51296.00
2022-08-26T09:26:32.046Z,57376.00
2022-08-26T09:27:32.036Z,54784.00
2022-08-26T09:28:32.027Z,53024.00
2022-08-26T09:29:32.018Z,52416.00
2022-08-26T09:30:32.040Z,49600.00
2022-08-26T09:31:32.069Z,51168.00
2022-08-26T09:32:31.996Z,46560.00
2022-08-26T09:33:31.985Z,37280.00
2022-08-26T09:34:32.072Z,43456.00
2022-08-26T09:35:31.954Z,38048.00
2022-08-26T09:36:34.386Z,34752.00
2022-08-26T09:37:32.011Z,40000.00
2022-08-26T09:38:31.928Z,37536.00
2022-08-26T09:39:31.916Z,40224.00
2022-08-26T09:40:34.841Z,35264.00
2022-08-26T09:41:31.898Z,45344.00
2022-08-26T09:42:31.893Z,44224.00
2022-08-26T09:43:31.877Z,42688.00
2022-08-26T09:44:31.901Z,42848.00
2022-08-26T09:45:31.881Z,42976.00
2022-08-26T09:46:32.035Z,40576.00
2022-08-26T09:47:32.018Z,40704.00
2022-08-26T09:48:31.828Z,40160.00
2022-08-26T09:49:35.711Z,38400.00
2022-08-26T09:50:31.811Z,42144.00
2022-08-26T09:51:31.809Z,41824.00
2022-08-26T09:52:31.793Z,38944.00
2022-08-26T09:53:31.785Z,40704.00
2022-08-26T09:54:32.483Z,36352.00
2022-08-26T09:55:31.776Z,35520.00
2022-08-26T09:56:31.793Z,41504.00
2022-08-26T09:57:31.738Z,43968.00
2022-08-26T09:58:31.731Z,45280.00
2022-08-26T09:59:31.720Z,44800.00
2022-08-26T10:00:31.720Z,41280.00
2022-08-26T10:01:31.762Z,47104.00
2022-08-26T10:02:31.696Z,48320.00
2022-08-26T10:03:31.750Z,47648.00
2022-08-26T10:04:31.701Z,46912.00
2022-08-26T10:05:31.661Z,47104.00
2022-08-26T10:06:31.672Z,49344.00
2022-08-26T10:07:31.674Z,50272.00
2022-08-26T10:08:31.633Z,56416.00
2022-08-26T10:09:31.623Z,59616.00
2022-08-26T10:10:31.618Z,60608.00
2022-08-26T10:11:31.623Z,61760.00
2022-08-26T10:12:31.598Z,61376.00
2022-08-26T10:13:31.589Z,63424.00
2022-08-26T10:14:31.577Z,65824.00
2022-08-26T10:15:31.566Z,64928.00
2022-08-26T10:16:31.620Z,66528.00
2022-08-26T10:17:31.575Z,72000.00
2022-08-26T10:18:34.308Z,52128.00
2022-08-26T10:19:55.852Z,53728.00
2022-08-26T10:20:32.560Z,63936.00
2022-08-26T10:21:31.505Z,60000.00
2022-08-26T10:22:31.502Z,68352.00
2022-08-26T10:23:31.544Z,69696.00
2022-08-26T10:24:31.481Z,69824.00
2022-08-26T10:25:31.467Z,52800.00
2022-08-26T10:26:31.460Z,54592.00
2022-08-26T10:27:31.458Z,65952.00
2022-08-26T10:28:31.442Z,64960.00
2022-08-26T10:29:31.438Z,60992.00
2022-08-26T10:30:31.617Z,61120.00
2022-08-26T10:31:38.270Z,61120.00
2022-08-26T10:32:31.469Z,54464.00
2022-08-26T10:33:31.435Z,56864.00
2022-08-26T10:34:31.399Z,61088.00
2022-08-26T10:35:31.488Z,61440.00
2022-08-26T10:36:36.434Z,52192.00
2022-08-26T10:37:32.384Z,49056.00
2022-08-26T10:38:31.352Z,49184.00
2022-08-26T10:39:31.344Z,47584.00
2022-08-26T10:40:31.493Z,54816.00
2022-08-26T10:41:31.334Z,55456.00
2022-08-26T10:42:31.321Z,47712.00
2022-08-26T10:43:31.317Z,44736.00
2022-08-26T10:44:31.298Z,48768.00
2022-08-26T10:45:31.355Z,39136.00
2022-08-26T10:46:31.277Z,38560.00
2022-08-26T10:47:31.264Z,35808.00
2022-08-26T10:48:35.686Z,34912.00
2022-08-26T10:49:31.341Z,35360.00
2022-08-26T10:50:31.269Z,35520.00
2022-08-26T10:51:31.223Z,34944.00
2022-08-26T10:52:31.218Z,34560.00
2022-08-26T10:53:32.630Z,34624.00
2022-08-26T10:54:31.205Z,35136.00
2022-08-26T10:55:31.196Z,36928.00
2022-08-26T10:56:31.176Z,39328.00
2022-08-26T10:57:31.169Z,39584.00
2022-08-26T10:58:31.190Z,40448.00
2022-08-26T10:59:31.217Z,42400.00
2022-08-26T11:00:31.409Z,42048.00
2022-08-26T11:01:31.288Z,42432.00
2022-08-26T11:02:31.131Z,44352.00
2022-08-26T11:03:31.117Z,64672.00
2022-08-26T11:04:31.146Z,51360.00
2022-08-26T11:05:31.091Z,49248.00
2022-08-26T11:06:31.080Z,68864.00
2022-08-26T11:07:31.756Z,63648.00
2022-08-26T11:08:31.087Z,42880.00
2022-08-26T11:10:31.043Z,50336.00
2022-08-26T11:11:31.035Z,43296.00
2022-08-26T11:12:31.023Z,41184.00
2022-08-26T11:13:31.308Z,45088.00
2022-08-26T13:08:53.079Z,51072.00
2022-08-26T13:09:52.821Z,37504.00
2022-08-26T13:10:52.770Z,49440.00
2022-08-26T13:11:52.760Z,58048.00
2022-08-26T13:12:52.753Z,44768.00
2022-08-26T13:13:53.439Z,65760.00
2022-08-26T13:14:52.729Z,67616.00
2022-08-26T13:15:52.767Z,70272.00
2022-08-26T13:16:52.712Z,71552.00
2022-08-26T13:17:52.695Z,69408.00
2022-08-26T13:18:52.699Z,60128.00
2022-08-26T13:19:52.790Z,50112.00
2022-08-26T13:20:52.690Z,50336.00
2022-08-26T13:21:52.685Z,50144.00
2022-08-26T13:22:58.830Z,48160.00
2022-08-26T13:23:53.657Z,47040.00
2022-08-26T13:24:52.623Z,47616.00
2022-08-26T13:25:52.613Z,49536.00
2022-08-26T13:26:52.612Z,50976.00
2022-08-26T13:27:52.591Z,53824.00
2022-08-26T13:28:55.305Z,77760.00
2022-08-26T13:29:53.597Z,81216.00
2022-08-26T13:30:52.571Z,81696.00
2022-08-26T13:31:52.631Z,80352.00
2022-08-26T13:32:52.574Z,77568.00
2022-08-26T13:33:52.535Z,78112.00
2022-08-26T13:34:52.522Z,74976.00
2022-08-26T13:35:52.514Z,55936.00
2022-08-26T13:36:52.501Z,74080.00
2022-08-26T13:37:52.493Z,74528.00
2022-08-26T13:38:52.485Z,71712.00
2022-08-26T13:39:52.502Z,70656.00
2022-08-26T13:40:52.467Z,69248.00
2022-08-26T13:41:52.451Z,69984.00
2022-08-26T13:42:52.477Z,67328.00
2022-08-26T13:43:52.506Z,70432.00
2022-08-26T13:44:52.427Z,71072.00
2022-08-26T13:45:52.409Z,68320.00
2022-08-26T13:46:52.406Z,66592.00
2022-08-26T13:47:52.393Z,67584.00
2022-08-26T13:48:52.380Z,70144.00
2022-08-26T13:49:52.374Z,72224.00
2022-08-26T13:50:52.366Z,66944.00
2022-08-26T13:51:52.355Z,65760.00
2022-08-26T13:52:52.346Z,65856.00
2022-08-26T13:53:52.337Z,62144.00
2022-08-26T13:54:52.474Z,66016.00
2022-08-26T13:55:52.375Z,58656.00
2022-08-26T13:56:52.302Z,58976.00
2022-08-26T13:57:52.291Z,42944.00
2022-08-26T13:58:52.281Z,34368.00
2022-08-26T13:59:52.274Z,30464.00
2022-08-26T14:00:52.360Z,30752.00
2022-08-26T14:01:52.257Z,34464.00
2022-08-26T17:46:13.623Z,2104.00
2022-08-26T17:47:13.478Z,2068.00
2022-08-26T17:48:13.461Z,2148.00
2022-08-26T17:49:13.450Z,2172.00
2022-08-26T17:50:13.448Z,2156.00
2022-08-26T17:51:13.432Z,2232.00
2022-08-26T17:52:13.417Z,2464.00
2022-08-26T17:53:18.671Z,2668.00
2022-08-26T17:54:13.394Z,2716.00
2022-08-26T17:55:13.386Z,2648.00
2022-08-26T17:56:13.526Z,2504.00
2022-08-26T17:57:13.420Z,2344.00